sensor_id;sensor_type;location;lat;lon;timestamp;temperature;humidity
46490;DHT22;32204;49.160;8.580;2024-03-25T00:02:09;7.50;99.90
46490;DHT22;32204;49.160;8.580;2024-03-25T00:04:34;7.50;99.90
46490;DHT22;32204;49.160;8.580;2024-03-25T00:07:00;7.50;99.90
46490;DHT22;32204;49.160;8.580;2024-03-25T00:09:26;7.50;99.90
46490;DHT22;32204;49.160;8.580;2024-03-25T00:11:52;7.50;99.90
46490;DHT22;32204;49.160;8.580;2024-03-25T00:14:21;7.50;99.90
46490;DHT22;32204;49.160;8.580;2024-03-25T00:16:46;7.40;99.90
46490;DHT22;32204;49.160;8.580;2024-03-25T00:19:12;7.40;99.90
46490;DHT22;32204;49.160;8.580;2024-03-25T00:21:38;7.40;99.90
46490;DHT22;32204;49.160;8.580;2024-03-25T00:24:04;7.30;99.90
46490;DHT22;32204;49.160;8.580;2024-03-25T00:26:29;7.30;99.90
46490;DHT22;32204;49.160;8.580;2024-03-25T00:28:55;7.40;99.90
46490;DHT22;32204;49.160;8.580;2024-03-25T00:31:20;7.40;99.90
46490;DHT22;32204;49.160;8.580;2024-03-25T00:33:46;7.40;99.90
46490;DHT22;32204;49.160;8.580;2024-03-25T00:36:12;7.40;99.90
46490;DHT22;32204;49.160;8.580;2024-03-25T00:38:38;7.30;99.90
46490;DHT22;32204;49.160;8.580;2024-03-25T00:41:04;7.30;99.90
46490;DHT22;32204;49.160;8.580;2024-03-25T00:43:29;7.30;99.90
46490;DHT22;32204;49.160;8.580;2024-03-25T00:45:55;7.30;99.90
46490;DHT22;32204;49.160;8.580;2024-03-25T00:48:22;7.30;99.90
46490;DHT22;32204;49.160;8.580;2024-03-25T00:50:48;7.30;99.90
46490;DHT22;32204;49.160;8.580;2024-03-25T00:53:13;7.30;99.90
46490;DHT22;32204;49.160;8.580;2024-03-25T00:55:39;7.20;1.00
46490;DHT22;32204;49.160;8.580;2024-03-25T00:58:05;7.30;1.00
46490;DHT22;32204;49.160;8.580;2024-03-25T01:00:31;7.30;1.00
46490;DHT22;32204;49.160;8.580;2024-03-25T01:02:56;7.30;99.90
46490;DHT22;32204;49.160;8.580;2024-03-25T01:05:22;7.30;1.00
46490;DHT22;32204;49.160;8.580;2024-03-25T01:07:48;7.30;99.90
46490;DHT22;32204;49.160;8.580;2024-03-25T01:10:14;7.40;99.90
46490;DHT22;32204;49.160;8.580;2024-03-25T01:12:40;7.30;1.00
46490;DHT22;32204;49.160;8.580;2024-03-25T01:15:06;7.30;99.90
46490;DHT22;32204;49.160;8.580;2024-03-25T01:17:32;7.30;1.00
46490;DHT22;32204;49.160;8.580;2024-03-25T01:19:58;7.30;1.00
46490;DHT22;32204;49.160;8.580;2024-03-25T01:22:24;7.40;1.00
46490;DHT22;32204;49.160;8.580;2024-03-25T01:24:49;7.40;99.90
46490;DHT22;32204;49.160;8.580;2024-03-25T01:27:15;7.50;99.90
46490;DHT22;32204;49.160;8.580;2024-03-25T01:29:40;7.50;99.90
46490;DHT22;32204;49.160;8.580;2024-03-25T01:32:06;7.40;99.90
46490;DHT22;32204;49.160;8.580;2024-03-25T01:34:32;7.40;99.90
46490;DHT22;32204;49.160;8.580;2024-03-25T01:36:57;7.40;99.90
46490;DHT22;32204;49.160;8.580;2024-03-25T01:39:23;7.40;99.90
46490;DHT22;32204;49.160;8.580;2024-03-25T01:41:50;7.30;99.90
46490;DHT22;32204;49.160;8.580;2024-03-25T01:44:16;7.30;1.00
46490;DHT22;32204;49.160;8.580;2024-03-25T01:46:42;7.30;1.00
46490;DHT22;32204;49.160;8.580;2024-03-25T01:49:08;7.30;1.00
46490;DHT22;32204;49.160;8.580;2024-03-25T01:51:35;7.30;1.00
46490;DHT22;32204;49.160;8.580;2024-03-25T01:54:01;7.30;99.90
46490;DHT22;32204;49.160;8.580;2024-03-25T01:56:31;7.30;1.00
46490;DHT22;32204;49.160;8.580;2024-03-25T01:58:58;7.20;1.00
46490;DHT22;32204;49.160;8.580;2024-03-25T02:01:24;7.20;1.00
46490;DHT22;32204;49.160;8.580;2024-03-25T02:03:50;7.20;1.00
46490;DHT22;32204;49.160;8.580;2024-03-25T02:06:17;7.30;1.00
46490;DHT22;32204;49.160;8.580;2024-03-25T02:08:43;7.30;1.00
46490;DHT22;32204;49.160;8.580;2024-03-25T02:11:10;7.30;1.00
46490;DHT22;32204;49.160;8.580;2024-03-25T02:13:39;7.20;1.00
46490;DHT22;32204;49.160;8.580;2024-03-25T02:16:05;7.30;1.00
46490;DHT22;32204;49.160;8.580;2024-03-25T02:18:31;7.40;99.90
46490;DHT22;32204;49.160;8.580;2024-03-25T02:21:00;7.30;1.00
46490;DHT22;32204;49.160;8.580;2024-03-25T02:23:26;7.30;1.00
46490;DHT22;32204;49.160;8.580;2024-03-25T02:25:53;7.30;1.00
46490;DHT22;32204;49.160;8.580;2024-03-25T02:28:19;7.30;1.00
46490;DHT22;32204;49.160;8.580;2024-03-25T02:30:45;7.40;1.00
46490;DHT22;32204;49.160;8.580;2024-03-25T02:33:10;7.40;1.00
46490;DHT22;32204;49.160;8.580;2024-03-25T02:35:37;7.40;1.00
46490;DHT22;32204;49.160;8.580;2024-03-25T02:38:05;7.30;1.00
46490;DHT22;32204;49.160;8.580;2024-03-25T02:40:31;7.30;99.90
46490;DHT22;32204;49.160;8.580;2024-03-25T02:42:57;7.30;1.00
46490;DHT22;32204;49.160;8.580;2024-03-25T02:45:23;7.30;99.90
46490;DHT22;32204;49.160;8.580;2024-03-25T02:47:50;7.30;1.00
46490;DHT22;32204;49.160;8.580;2024-03-25T02:50:15;7.40;1.00
46490;DHT22;32204;49.160;8.580;2024-03-25T02:52:41;7.40;99.90
46490;DHT22;32204;49.160;8.580;2024-03-25T02:55:06;7.40;99.90
46490;DHT22;32204;49.160;8.580;2024-03-25T02:57:32;7.40;99.90
46490;DHT22;32204;49.160;8.580;2024-03-25T02:59:58;7.40;1.00
46490;DHT22;32204;49.160;8.580;2024-03-25T03:02:23;7.40;99.90
46490;DHT22;32204;49.160;8.580;2024-03-25T03:04:49;7.40;99.90
46490;DHT22;32204;49.160;8.580;2024-03-25T03:07:14;7.50;99.90
46490;DHT22;32204;49.160;8.580;2024-03-25T03:09:40;7.50;99.90
46490;DHT22;32204;49.160;8.580;2024-03-25T03:12:06;7.50;99.90
46490;DHT22;32204;49.160;8.580;2024-03-25T03:14:31;7.50;99.90
46490;DHT22;32204;49.160;8.580;2024-03-25T03:16:57;7.50;99.90
46490;DHT22;32204;49.160;8.580;2024-03-25T03:19:30;7.50;99.90
46490;DHT22;32204;49.160;8.580;2024-03-25T03:21:55;7.40;99.90
46490;DHT22;32204;49.160;8.580;2024-03-25T03:24:21;7.40;99.90
46490;DHT22;32204;49.160;8.580;2024-03-25T03:26:47;7.50;99.90
46490;DHT22;32204;49.160;8.580;2024-03-25T03:29:12;7.40;99.90
46490;DHT22;32204;49.160;8.580;2024-03-25T03:31:38;7.40;99.90
46490;DHT22;32204;49.160;8.580;2024-03-25T03:34:03;7.40;99.90
46490;DHT22;32204;49.160;8.580;2024-03-25T03:36:29;7.50;99.90
46490;DHT22;32204;49.160;8.580;2024-03-25T03:38:54;7.50;99.90
46490;DHT22;32204;49.160;8.580;2024-03-25T03:41:20;7.50;99.90
46490;DHT22;32204;49.160;8.580;2024-03-25T03:43:46;7.50;99.90
46490;DHT22;32204;49.160;8.580;2024-03-25T03:46:12;7.50;99.90
46490;DHT22;32204;49.160;8.580;2024-03-25T03:48:37;7.50;99.90
46490;DHT22;32204;49.160;8.580;2024-03-25T03:51:04;7.40;1.00
46490;DHT22;32204;49.160;8.580;2024-03-25T03:53:31;7.30;1.00
46490;DHT22;32204;49.160;8.580;2024-03-25T03:56:02;7.20;1.00
46490;DHT22;32204;49.160;8.580;2024-03-25T03:58:28;7.10;99.90
46490;DHT22;32204;49.160;8.580;2024-03-25T04:00:54;7.20;99.90
46490;DHT22;32204;49.160;8.580;2024-03-25T04:03:20;7.20;99.90
46490;DHT22;32204;49.160;8.580;2024-03-25T04:05:46;7.20;99.90
46490;DHT22;32204;49.160;8.580;2024-03-25T04:08:12;7.10;99.90
46490;DHT22;32204;49.160;8.580;2024-03-25T04:10:38;7.10;99.90
46490;DHT22;32204;49.160;8.580;2024-03-25T04:13:04;7.10;99.90
46490;DHT22;32204;49.160;8.580;2024-03-25T04:15:42;7.10;99.90
46490;DHT22;32204;49.160;8.580;2024-03-25T04:18:08;7.10;99.90
46490;DHT22;32204;49.160;8.580;2024-03-25T04:20:38;7.10;99.90
46490;DHT22;32204;49.160;8.580;2024-03-25T04:23:04;7.10;99.90
46490;DHT22;32204;49.160;8.580;2024-03-25T04:25:32;7.00;99.90
46490;DHT22;32204;49.160;8.580;2024-03-25T04:27:58;7.00;99.90
46490;DHT22;32204;49.160;8.580;2024-03-25T04:30:25;6.90;99.90
46490;DHT22;32204;49.160;8.580;2024-03-25T04:32:50;7.00;1.00
46490;DHT22;32204;49.160;8.580;2024-03-25T04:35:16;7.10;99.90
46490;DHT22;32204;49.160;8.580;2024-03-25T04:37:41;7.20;99.90
46490;DHT22;32204;49.160;8.580;2024-03-25T04:40:07;7.10;99.90
46490;DHT22;32204;49.160;8.580;2024-03-25T04:42:33;7.10;99.90
46490;DHT22;32204;49.160;8.580;2024-03-25T04:44:59;7.00;99.90
46490;DHT22;32204;49.160;8.580;2024-03-25T04:47:24;7.00;99.90
46490;DHT22;32204;49.160;8.580;2024-03-25T04:49:50;7.00;99.90
46490;DHT22;32204;49.160;8.580;2024-03-25T04:52:17;7.00;1.00
46490;DHT22;32204;49.160;8.580;2024-03-25T04:54:43;7.00;99.90
46490;DHT22;32204;49.160;8.580;2024-03-25T04:57:09;7.00;99.90
46490;DHT22;32204;49.160;8.580;2024-03-25T04:59:35;7.00;1.00
46490;DHT22;32204;49.160;8.580;2024-03-25T05:02:00;6.90;99.90
46490;DHT22;32204;49.160;8.580;2024-03-25T05:04:26;6.90;99.90
46490;DHT22;32204;49.160;8.580;2024-03-25T05:06:52;6.80;1.00
46490;DHT22;32204;49.160;8.580;2024-03-25T05:09:17;6.70;1.00
46490;DHT22;32204;49.160;8.580;2024-03-25T05:11:43;6.70;56.10
46490;DHT22;32204;49.160;8.580;2024-03-25T05:14:09;6.70;28.00
46490;DHT22;32204;49.160;8.580;2024-03-25T05:16:35;6.60;99.90
46490;DHT22;32204;49.160;8.580;2024-03-25T05:19:02;6.60;99.90
46490;DHT22;32204;49.160;8.580;2024-03-25T05:21:27;6.50;99.90
46490;DHT22;32204;49.160;8.580;2024-03-25T05:23:53;6.50;99.90
46490;DHT22;32204;49.160;8.580;2024-03-25T05:26:18;6.50;99.90
46490;DHT22;32204;49.160;8.580;2024-03-25T05:28:44;6.50;1.00
46490;DHT22;32204;49.160;8.580;2024-03-25T05:31:10;6.60;99.90
46490;DHT22;32204;49.160;8.580;2024-03-25T05:33:36;6.60;99.90
46490;DHT22;32204;49.160;8.580;2024-03-25T05:36:02;6.60;99.90
46490;DHT22;32204;49.160;8.580;2024-03-25T05:38:28;6.60;1.00
46490;DHT22;32204;49.160;8.580;2024-03-25T05:40:54;6.60;1.00
46490;DHT22;32204;49.160;8.580;2024-03-25T05:43:20;6.60;1.00
46490;DHT22;32204;49.160;8.580;2024-03-25T05:45:56;6.60;1.00
46490;DHT22;32204;49.160;8.580;2024-03-25T05:48:24;6.90;1.00
46490;DHT22;32204;49.160;8.580;2024-03-25T05:53:26;9.00;54.00
46490;DHT22;32204;49.160;8.580;2024-03-25T05:55:52;9.70;99.90
46490;DHT22;32204;49.160;8.580;2024-03-25T05:58:18;10.50;99.90
46490;DHT22;32204;49.160;8.580;2024-03-25T06:00:46;11.10;1.00
46490;DHT22;32204;49.160;8.580;2024-03-25T06:03:11;11.70;99.90
46490;DHT22;32204;49.160;8.580;2024-03-25T06:05:37;11.90;99.90
46490;DHT22;32204;49.160;8.580;2024-03-25T06:08:02;12.80;99.90
46490;DHT22;32204;49.160;8.580;2024-03-25T06:10:28;13.60;99.90
46490;DHT22;32204;49.160;8.580;2024-03-25T06:12:54;14.40;99.90
46490;DHT22;32204;49.160;8.580;2024-03-25T06:15:19;14.80;99.90
46490;DHT22;32204;49.160;8.580;2024-03-25T06:17:45;15.30;99.90
46490;DHT22;32204;49.160;8.580;2024-03-25T06:20:11;15.00;99.90
46490;DHT22;32204;49.160;8.580;2024-03-25T06:22:36;15.00;99.90
46490;DHT22;32204;49.160;8.580;2024-03-25T06:25:02;15.10;99.90
46490;DHT22;32204;49.160;8.580;2024-03-25T06:27:28;15.40;99.90
46490;DHT22;32204;49.160;8.580;2024-03-25T06:29:55;16.00;99.90
46490;DHT22;32204;49.160;8.580;2024-03-25T06:32:40;16.90;99.90
46490;DHT22;32204;49.160;8.580;2024-03-25T06:35:24;17.30;99.90
46490;DHT22;32204;49.160;8.580;2024-03-25T06:37:50;17.60;99.90
46490;DHT22;32204;49.160;8.580;2024-03-25T06:40:15;17.80;99.90
46490;DHT22;32204;49.160;8.580;2024-03-25T06:42:41;18.20;99.90
46490;DHT22;32204;49.160;8.580;2024-03-25T06:45:06;18.70;99.90
46490;DHT22;32204;49.160;8.580;2024-03-25T06:47:32;18.10;99.90
46490;DHT22;32204;49.160;8.580;2024-03-25T06:49:58;16.10;99.90
46490;DHT22;32204;49.160;8.580;2024-03-25T06:52:23;13.60;99.90
46490;DHT22;32204;49.160;8.580;2024-03-25T06:54:49;12.10;99.90
46490;DHT22;32204;49.160;8.580;2024-03-25T06:57:14;11.10;1.00
46490;DHT22;32204;49.160;8.580;2024-03-25T06:59:40;10.30;1.00
46490;DHT22;32204;49.160;8.580;2024-03-25T07:02:05;10.00;99.90
46490;DHT22;32204;49.160;8.580;2024-03-25T07:04:32;9.80;99.90
46490;DHT22;32204;49.160;8.580;2024-03-25T07:06:58;9.80;99.90
46490;DHT22;32204;49.160;8.580;2024-03-25T07:09:24;9.30;1.00
46490;DHT22;32204;49.160;8.580;2024-03-25T07:11:49;8.90;99.90
46490;DHT22;32204;49.160;8.580;2024-03-25T07:14:15;8.70;1.00
46490;DHT22;32204;49.160;8.580;2024-03-25T07:16:41;8.60;60.80
46490;DHT22;32204;49.160;8.580;2024-03-25T07:19:06;8.60;99.90
46490;DHT22;32204;49.160;8.580;2024-03-25T07:21:32;8.50;99.90
46490;DHT22;32204;49.160;8.580;2024-03-25T07:23:57;8.50;1.00
46490;DHT22;32204;49.160;8.580;2024-03-25T07:26:23;8.50;99.90
46490;DHT22;32204;49.160;8.580;2024-03-25T07:28:48;8.50;1.00
46490;DHT22;32204;49.160;8.580;2024-03-25T07:31:14;8.50;1.00
46490;DHT22;32204;49.160;8.580;2024-03-25T07:33:40;8.40;1.00
46490;DHT22;32204;49.160;8.580;2024-03-25T07:36:05;8.50;1.00
46490;DHT22;32204;49.160;8.580;2024-03-25T07:38:31;8.50;1.00
46490;DHT22;32204;49.160;8.580;2024-03-25T07:41:03;8.50;1.00
46490;DHT22;32204;49.160;8.580;2024-03-25T07:43:30;8.60;1.00
46490;DHT22;32204;49.160;8.580;2024-03-25T07:45:55;8.60;99.90
46490;DHT22;32204;49.160;8.580;2024-03-25T07:48:21;8.60;99.90
46490;DHT22;32204;49.160;8.580;2024-03-25T07:50:46;8.50;91.70
46490;DHT22;32204;49.160;8.580;2024-03-25T07:53:12;8.50;99.90
46490;DHT22;32204;49.160;8.580;2024-03-25T07:55:41;8.60;99.90
46490;DHT22;32204;49.160;8.580;2024-03-25T07:58:06;8.80;99.90
46490;DHT22;32204;49.160;8.580;2024-03-25T08:00:32;8.90;1.00
46490;DHT22;32204;49.160;8.580;2024-03-25T08:02:57;9.00;1.00
46490;DHT22;32204;49.160;8.580;2024-03-25T08:05:23;9.00;1.00
46490;DHT22;32204;49.160;8.580;2024-03-25T08:07:48;9.10;1.00
46490;DHT22;32204;49.160;8.580;2024-03-25T08:10:14;9.10;1.00
46490;DHT22;32204;49.160;8.580;2024-03-25T08:12:39;9.10;1.00
46490;DHT22;32204;49.160;8.580;2024-03-25T08:15:05;9.10;1.00
46490;DHT22;32204;49.160;8.580;2024-03-25T08:17:31;9.20;1.00
46490;DHT22;32204;49.160;8.580;2024-03-25T08:19:56;9.30;99.90
46490;DHT22;32204;49.160;8.580;2024-03-25T08:22:22;9.40;1.00
46490;DHT22;32204;49.160;8.580;2024-03-25T08:24:48;9.50;25.50
46490;DHT22;32204;49.160;8.580;2024-03-25T08:27:13;9.70;1.00
46490;DHT22;32204;49.160;8.580;2024-03-25T08:29:39;9.70;8.70
46490;DHT22;32204;49.160;8.580;2024-03-25T08:32:04;9.90;1.00
46490;DHT22;32204;49.160;8.580;2024-03-25T08:34:30;10.00;1.00
46490;DHT22;32204;49.160;8.580;2024-03-25T08:36:56;10.40;1.00
46490;DHT22;32204;49.160;8.580;2024-03-25T08:39:22;10.50;1.00
46490;DHT22;32204;49.160;8.580;2024-03-25T08:41:47;10.80;99.90
46490;DHT22;32204;49.160;8.580;2024-03-25T08:44:13;11.00;99.90
46490;DHT22;32204;49.160;8.580;2024-03-25T08:46:39;11.20;99.90
46490;DHT22;32204;49.160;8.580;2024-03-25T08:49:04;11.30;99.90
46490;DHT22;32204;49.160;8.580;2024-03-25T08:51:30;11.50;99.90
46490;DHT22;32204;49.160;8.580;2024-03-25T08:53:56;11.30;99.90
46490;DHT22;32204;49.160;8.580;2024-03-25T08:56:21;11.30;99.90
46490;DHT22;32204;49.160;8.580;2024-03-25T08:58:47;11.20;99.90
46490;DHT22;32204;49.160;8.580;2024-03-25T09:01:12;10.90;93.20
46490;DHT22;32204;49.160;8.580;2024-03-25T09:03:40;10.50;94.20
46490;DHT22;32204;49.160;8.580;2024-03-25T09:06:06;10.50;99.90
46490;DHT22;32204;49.160;8.580;2024-03-25T09:08:33;10.80;99.90
46490;DHT22;32204;49.160;8.580;2024-03-25T09:11:18;10.90;99.60
46490;DHT22;32204;49.160;8.580;2024-03-25T09:13:44;11.10;99.20
46490;DHT22;32204;49.160;8.580;2024-03-25T09:16:10;11.30;99.90
46490;DHT22;32204;49.160;8.580;2024-03-25T09:18:35;11.40;99.90
46490;DHT22;32204;49.160;8.580;2024-03-25T09:21:01;11.60;94.50
46490;DHT22;32204;49.160;8.580;2024-03-25T09:23:30;11.60;90.90
46490;DHT22;32204;49.160;8.580;2024-03-25T09:25:56;11.40;96.30
46490;DHT22;32204;49.160;8.580;2024-03-25T09:28:21;11.70;99.90
46490;DHT22;32204;49.160;8.580;2024-03-25T09:30:50;12.10;98.30
46490;DHT22;32204;49.160;8.580;2024-03-25T09:33:16;12.20;89.10
46490;DHT22;32204;49.160;8.580;2024-03-25T09:35:41;12.20;93.60
46490;DHT22;32204;49.160;8.580;2024-03-25T09:38:07;12.30;89.50
46490;DHT22;32204;49.160;8.580;2024-03-25T09:40:35;12.40;71.30
46490;DHT22;32204;49.160;8.580;2024-03-25T09:43:02;12.50;93.90
46490;DHT22;32204;49.160;8.580;2024-03-25T09:45:29;12.60;99.90
46490;DHT22;32204;49.160;8.580;2024-03-25T09:47:55;12.80;99.90
46490;DHT22;32204;49.160;8.580;2024-03-25T09:50:21;13.00;96.90
46490;DHT22;32204;49.160;8.580;2024-03-25T09:52:51;12.70;91.50
46490;DHT22;32204;49.160;8.580;2024-03-25T09:55:17;12.50;91.90
46490;DHT22;32204;49.160;8.580;2024-03-25T09:57:43;12.60;96.10
46490;DHT22;32204;49.160;8.580;2024-03-25T10:00:10;12.80;99.90
46490;DHT22;32204;49.160;8.580;2024-03-25T10:02:40;12.80;71.50
46490;DHT22;32204;49.160;8.580;2024-03-25T10:05:07;12.60;70.40
46490;DHT22;32204;49.160;8.580;2024-03-25T10:07:33;12.00;51.70
46490;DHT22;32204;49.160;8.580;2024-03-25T10:09:59;11.40;56.10
46490;DHT22;32204;49.160;8.580;2024-03-25T10:12:25;11.50;63.30
46490;DHT22;32204;49.160;8.580;2024-03-25T10:14:51;11.60;74.20
46490;DHT22;32204;49.160;8.580;2024-03-25T10:17:16;12.10;79.60
46490;DHT22;32204;49.160;8.580;2024-03-25T10:19:42;12.30;78.20
46490;DHT22;32204;49.160;8.580;2024-03-25T10:22:08;12.50;77.70
46490;DHT22;32204;49.160;8.580;2024-03-25T10:24:44;12.30;65.60
46490;DHT22;32204;49.160;8.580;2024-03-25T10:27:23;12.30;74.70
46490;DHT22;32204;49.160;8.580;2024-03-25T10:29:53;12.50;69.60
46490;DHT22;32204;49.160;8.580;2024-03-25T10:32:19;12.80;66.20
46490;DHT22;32204;49.160;8.580;2024-03-25T10:34:45;12.90;59.20
46490;DHT22;32204;49.160;8.580;2024-03-25T10:37:11;12.90;47.10
46490;DHT22;32204;49.160;8.580;2024-03-25T10:39:42;12.80;48.30
46490;DHT22;32204;49.160;8.580;2024-03-25T10:42:10;13.00;43.90
46490;DHT22;32204;49.160;8.580;2024-03-25T10:44:38;12.90;49.30
46490;DHT22;32204;49.160;8.580;2024-03-25T10:47:05;12.80;38.70
46490;DHT22;32204;49.160;8.580;2024-03-25T10:52:08;12.20;33.20
46490;DHT22;32204;49.160;8.580;2024-03-25T10:54:36;12.50;36.00
46490;DHT22;32204;49.160;8.580;2024-03-25T10:57:03;12.60;33.80
46490;DHT22;32204;49.160;8.580;2024-03-25T10:59:30;12.90;38.00
46490;DHT22;32204;49.160;8.580;2024-03-25T11:01:56;13.20;43.90
46490;DHT22;32204;49.160;8.580;2024-03-25T11:04:23;13.60;52.60
46490;DHT22;32204;49.160;8.580;2024-03-25T11:06:49;13.80;40.60
46490;DHT22;32204;49.160;8.580;2024-03-25T11:09:24;13.80;29.50
46490;DHT22;32204;49.160;8.580;2024-03-25T11:11:53;13.60;30.70
46490;DHT22;32204;49.160;8.580;2024-03-25T11:14:19;13.80;37.70
46490;DHT22;32204;49.160;8.580;2024-03-25T11:16:54;13.90;40.10
46490;DHT22;32204;49.160;8.580;2024-03-25T11:19:20;14.10;42.90
46490;DHT22;32204;49.160;8.580;2024-03-25T11:21:46;14.00;35.10
46490;DHT22;32204;49.160;8.580;2024-03-25T11:24:12;14.00;42.80
46490;DHT22;32204;49.160;8.580;2024-03-25T11:26:42;13.60;42.40
46490;DHT22;32204;49.160;8.580;2024-03-25T11:29:08;13.50;37.70
46490;DHT22;32204;49.160;8.580;2024-03-25T11:31:34;13.00;38.00
46490;DHT22;32204;49.160;8.580;2024-03-25T11:34:06;12.80;41.30
46490;DHT22;32204;49.160;8.580;2024-03-25T11:36:33;13.10;37.50
46490;DHT22;32204;49.160;8.580;2024-03-25T11:39:04;12.90;44.80
46490;DHT22;32204;49.160;8.580;2024-03-25T11:41:33;12.60;58.90
46490;DHT22;32204;49.160;8.580;2024-03-25T11:44:00;12.60;39.00
46490;DHT22;32204;49.160;8.580;2024-03-25T11:46:26;12.40;56.10
46490;DHT22;32204;49.160;8.580;2024-03-25T11:48:54;12.60;49.00
46490;DHT22;32204;49.160;8.580;2024-03-25T11:51:20;12.70;53.50
46490;DHT22;32204;49.160;8.580;2024-03-25T11:53:46;12.70;55.70
46490;DHT22;32204;49.160;8.580;2024-03-25T11:56:11;12.60;57.00
46490;DHT22;32204;49.160;8.580;2024-03-25T11:58:38;12.70;53.50
46490;DHT22;32204;49.160;8.580;2024-03-25T12:01:04;12.70;45.60
46490;DHT22;32204;49.160;8.580;2024-03-25T12:03:29;12.30;62.90
46490;DHT22;32204;49.160;8.580;2024-03-25T12:05:56;12.60;58.40
46490;DHT22;32204;49.160;8.580;2024-03-25T12:08:23;13.00;63.10
46490;DHT22;32204;49.160;8.580;2024-03-25T12:10:51;12.90;56.70
46490;DHT22;32204;49.160;8.580;2024-03-25T12:13:38;12.70;49.70
46490;DHT22;32204;49.160;8.580;2024-03-25T12:16:08;12.70;55.00
46490;DHT22;32204;49.160;8.580;2024-03-25T12:18:39;12.90;58.90
46490;DHT22;32204;49.160;8.580;2024-03-25T12:21:06;12.90;51.20
46490;DHT22;32204;49.160;8.580;2024-03-25T12:23:33;12.80;74.30
46490;DHT22;32204;49.160;8.580;2024-03-25T12:25:59;13.00;73.00
46490;DHT22;32204;49.160;8.580;2024-03-25T12:28:26;12.90;88.40
46490;DHT22;32204;49.160;8.580;2024-03-25T12:30:53;13.00;75.30
46490;DHT22;32204;49.160;8.580;2024-03-25T12:33:19;12.90;65.60
46490;DHT22;32204;49.160;8.580;2024-03-25T12:35:46;12.80;74.10
46490;DHT22;32204;49.160;8.580;2024-03-25T12:38:25;13.10;90.50
46490;DHT22;32204;49.160;8.580;2024-03-25T12:40:51;13.10;85.00
46490;DHT22;32204;49.160;8.580;2024-03-25T12:43:17;13.30;80.80
46490;DHT22;32204;49.160;8.580;2024-03-25T12:45:43;13.50;57.50
46490;DHT22;32204;49.160;8.580;2024-03-25T12:48:09;13.20;63.90
46490;DHT22;32204;49.160;8.580;2024-03-25T12:50:35;13.10;94.40
46490;DHT22;32204;49.160;8.580;2024-03-25T12:53:01;12.90;54.20
46490;DHT22;32204;49.160;8.580;2024-03-25T12:55:31;13.20;71.00
46490;DHT22;32204;49.160;8.580;2024-03-25T12:57:57;13.20;71.10
46490;DHT22;32204;49.160;8.580;2024-03-25T13:00:23;13.30;72.20
46490;DHT22;32204;49.160;8.580;2024-03-25T13:02:49;13.10;63.70
46490;DHT22;32204;49.160;8.580;2024-03-25T13:05:14;13.50;71.00
46490;DHT22;32204;49.160;8.580;2024-03-25T13:07:40;13.30;86.20
46490;DHT22;32204;49.160;8.580;2024-03-25T13:10:06;13.40;88.00
46490;DHT22;32204;49.160;8.580;2024-03-25T13:12:32;13.70;92.00
46490;DHT22;32204;49.160;8.580;2024-03-25T13:14:57;13.80;91.80
46490;DHT22;32204;49.160;8.580;2024-03-25T13:17:24;13.60;91.80
46490;DHT22;32204;49.160;8.580;2024-03-25T13:19:50;13.70;91.90
46490;DHT22;32204;49.160;8.580;2024-03-25T13:22:16;13.60;78.30
46490;DHT22;32204;49.160;8.580;2024-03-25T13:24:41;13.50;86.60
46490;DHT22;32204;49.160;8.580;2024-03-25T13:27:07;13.60;81.00
46490;DHT22;32204;49.160;8.580;2024-03-25T13:29:32;13.60;72.60
46490;DHT22;32204;49.160;8.580;2024-03-25T13:32:01;13.50;46.80
46490;DHT22;32204;49.160;8.580;2024-03-25T13:34:27;13.50;45.90
46490;DHT22;32204;49.160;8.580;2024-03-25T13:36:53;13.60;43.60
46490;DHT22;32204;49.160;8.580;2024-03-25T13:39:19;13.80;52.10
46490;DHT22;32204;49.160;8.580;2024-03-25T13:41:44;14.10;80.80
46490;DHT22;32204;49.160;8.580;2024-03-25T13:44:11;14.20;91.30
46490;DHT22;32204;49.160;8.580;2024-03-25T13:46:36;13.90;95.90
46490;DHT22;32204;49.160;8.580;2024-03-25T13:49:02;13.60;73.90
46490;DHT22;32204;49.160;8.580;2024-03-25T13:51:27;13.50;90.90
46490;DHT22;32204;49.160;8.580;2024-03-25T13:53:54;13.40;74.40
46490;DHT22;32204;49.160;8.580;2024-03-25T13:56:19;13.50;91.20
46490;DHT22;32204;49.160;8.580;2024-03-25T13:58:45;13.50;86.50
46490;DHT22;32204;49.160;8.580;2024-03-25T14:01:13;13.70;83.40
46490;DHT22;32204;49.160;8.580;2024-03-25T14:03:40;13.60;53.20
46490;DHT22;32204;49.160;8.580;2024-03-25T14:06:06;13.70;84.30
46490;DHT22;32204;49.160;8.580;2024-03-25T14:08:32;13.90;85.30
46490;DHT22;32204;49.160;8.580;2024-03-25T14:11:01;14.10;89.50
46490;DHT22;32204;49.160;8.580;2024-03-25T14:13:28;14.10;74.60
46490;DHT22;32204;49.160;8.580;2024-03-25T14:15:55;13.80;59.20
46490;DHT22;32204;49.160;8.580;2024-03-25T14:18:21;13.80;92.50
46490;DHT22;32204;49.160;8.580;2024-03-25T14:20:47;13.70;89.50
46490;DHT22;32204;49.160;8.580;2024-03-25T14:23:16;13.80;91.40
46490;DHT22;32204;49.160;8.580;2024-03-25T14:25:42;13.70;86.80
46490;DHT22;32204;49.160;8.580;2024-03-25T14:28:08;13.70;96.00
46490;DHT22;32204;49.160;8.580;2024-03-25T14:30:33;13.60;85.40
46490;DHT22;32204;49.160;8.580;2024-03-25T14:32:59;13.70;87.40
46490;DHT22;32204;49.160;8.580;2024-03-25T14:35:24;13.80;69.80
46490;DHT22;32204;49.160;8.580;2024-03-25T14:37:50;13.80;57.60
46490;DHT22;32204;49.160;8.580;2024-03-25T14:40:16;13.60;55.30
46490;DHT22;32204;49.160;8.580;2024-03-25T14:42:44;13.90;75.40
46490;DHT22;32204;49.160;8.580;2024-03-25T14:45:10;13.90;51.90
46490;DHT22;32204;49.160;8.580;2024-03-25T14:47:35;14.00;80.00
46490;DHT22;32204;49.160;8.580;2024-03-25T14:50:01;14.10;82.90
46490;DHT22;32204;49.160;8.580;2024-03-25T14:52:26;13.90;81.50
46490;DHT22;32204;49.160;8.580;2024-03-25T14:54:52;14.10;96.70
46490;DHT22;32204;49.160;8.580;2024-03-25T14:57:18;14.10;94.90
46490;DHT22;32204;49.160;8.580;2024-03-25T14:59:43;14.20;94.00
46490;DHT22;32204;49.160;8.580;2024-03-25T15:02:09;14.30;68.80
46490;DHT22;32204;49.160;8.580;2024-03-25T15:04:41;14.20;78.10
46490;DHT22;32204;49.160;8.580;2024-03-25T15:07:10;14.10;76.50
46490;DHT22;32204;49.160;8.580;2024-03-25T15:09:35;14.00;69.70
46490;DHT22;32204;49.160;8.580;2024-03-25T15:12:01;13.90;63.10
46490;DHT22;32204;49.160;8.580;2024-03-25T15:14:29;13.80;68.10
46490;DHT22;32204;49.160;8.580;2024-03-25T15:16:56;13.90;63.30
46490;DHT22;32204;49.160;8.580;2024-03-25T15:19:24;13.80;68.70
46490;DHT22;32204;49.160;8.580;2024-03-25T15:21:49;13.80;69.30
46490;DHT22;32204;49.160;8.580;2024-03-25T15:24:15;13.60;64.60
46490;DHT22;32204;49.160;8.580;2024-03-25T15:26:40;13.70;74.90
46490;DHT22;32204;49.160;8.580;2024-03-25T15:29:06;13.80;75.50
46490;DHT22;32204;49.160;8.580;2024-03-25T15:31:32;13.80;56.70
46490;DHT22;32204;49.160;8.580;2024-03-25T15:33:57;14.00;60.90
46490;DHT22;32204;49.160;8.580;2024-03-25T15:36:23;13.90;54.30
46490;DHT22;32204;49.160;8.580;2024-03-25T15:38:50;13.90;53.10
46490;DHT22;32204;49.160;8.580;2024-03-25T15:41:16;13.90;62.50